createdAt,value
2018-02-20T00:00:53.324Z,0.20
2018-02-20T00:03:22.176Z,0.20
2018-02-20T00:05:50.576Z,0.30
2018-02-20T00:08:18.901Z,0.30
2018-02-20T00:10:47.904Z,0.20
2018-02-20T00:13:16.237Z,0.20
2018-02-20T00:15:44.557Z,0.20
2018-02-20T00:18:13.294Z,0.20
2018-02-20T00:20:42.028Z,0.20
2018-02-20T00:23:10.916Z,0.20
2018-02-20T00:25:39.299Z,0.20
2018-02-20T00:28:07.617Z,0.20
2018-02-20T00:30:35.940Z,0.20
2018-02-20T00:33:04.309Z,0.30
2018-02-20T00:35:32.624Z,0.30
2018-02-20T00:38:02.447Z,0.30
2018-02-20T00:40:30.851Z,0.30
2018-02-20T00:42:59.167Z,0.30
2018-02-20T00:45:27.488Z,0.20
2018-02-20T00:47:56.907Z,0.10
2018-02-20T00:50:25.965Z,0.00
2018-02-20T00:52:55.066Z,0.00
2018-02-20T00:55:23.433Z,0.00
2018-02-20T00:57:51.933Z,0.00
2018-02-20T01:00:20.240Z,0.00
2018-02-20T01:02:49.231Z,-0.10
2018-02-20T01:05:17.557Z,-0.10
2018-02-20T01:07:45.880Z,-0.20
2018-02-20T01:10:14.249Z,-0.20
2018-02-20T01:12:42.572Z,-0.30
2018-02-20T01:15:11.388Z,-0.50
2018-02-20T01:17:40.541Z,-0.50
2018-02-20T01:20:08.867Z,-0.60
2018-02-20T01:22:37.193Z,-0.40
2018-02-20T01:25:06.197Z,-0.30
2018-02-20T01:27:34.508Z,-0.20
2018-02-20T01:30:02.836Z,-0.20
2018-02-20T01:32:31.493Z,0.00
2018-02-20T01:34:59.844Z,0.30
2018-02-20T01:37:28.177Z,0.30
2018-02-20T01:39:56.549Z,-0.10
2018-02-20T01:42:24.871Z,-0.30
2018-02-20T01:44:53.188Z,-0.40
2018-02-20T01:47:21.585Z,-0.40
2018-02-20T01:49:53.117Z,-0.30
2018-02-20T01:52:21.552Z,-0.30
2018-02-20T01:54:50.347Z,-0.20
2018-02-20T01:57:18.688Z,-0.10
2018-02-20T01:59:47.043Z,-0.10
2018-02-20T02:02:15.368Z,-0.30
2018-02-20T02:04:44.005Z,-0.40
2018-02-20T02:07:13.024Z,-0.40
2018-02-20T02:09:41.410Z,-0.30
2018-02-20T02:12:10.451Z,-0.30
2018-02-20T02:14:38.788Z,-0.20
2018-02-20T02:17:07.223Z,-0.40
2018-02-20T02:19:35.587Z,-0.40
2018-02-20T02:22:04.043Z,-0.30
2018-02-20T02:24:32.904Z,-0.30
2018-02-20T02:27:01.233Z,-0.20
2018-02-20T02:29:30.085Z,-0.10
2018-02-20T02:31:58.427Z,-0.30
2018-02-20T02:34:26.761Z,-0.30
2018-02-20T02:36:55.155Z,-0.20
2018-02-20T02:39:23.497Z,-0.30
2018-02-20T02:41:51.824Z,-0.40
2018-02-20T02:44:20.197Z,-0.40
2018-02-20T02:46:49.294Z,-0.50
2018-02-20T02:49:17.662Z,-0.50
2018-02-20T02:51:45.996Z,-0.40
2018-02-20T02:54:14.318Z,-0.40
2018-02-20T02:56:43.733Z,-0.30
2018-02-20T02:59:12.076Z,-0.30
2018-02-20T03:01:40.449Z,-0.40
2018-02-20T03:04:08.760Z,-0.20
2018-02-20T03:06:38.586Z,-0.40
2018-02-20T03:09:08.176Z,-0.30
2018-02-20T03:11:36.709Z,-0.30
2018-02-20T03:14:05.211Z,-0.50
2018-02-20T03:16:33.888Z,-0.60
2018-02-20T03:19:02.249Z,-0.70
2018-02-20T03:21:30.581Z,-0.60
2018-02-20T03:23:58.952Z,-0.60
2018-02-20T03:26:27.280Z,-0.60
2018-02-20T03:28:55.604Z,-0.60
2018-02-20T03:31:23.974Z,-0.60
2018-02-20T03:33:52.301Z,-0.60
2018-02-20T03:36:21.392Z,-0.20
2018-02-20T03:38:51.135Z,-0.20
2018-02-20T03:41:22.572Z,-0.20
2018-02-20T03:43:50.988Z,-0.20
2018-02-20T03:46:21.272Z,-0.10
2018-02-20T03:48:49.593Z,0.00
2018-02-20T03:51:17.924Z,-0.20
2018-02-20T03:53:46.352Z,-0.30
2018-02-20T03:56:15.464Z,-0.40
2018-02-20T03:58:43.788Z,-0.30
2018-02-20T04:01:12.837Z,-0.40
2018-02-20T04:03:41.156Z,-0.40
2018-02-20T04:06:09.497Z,-0.30
2018-02-20T04:08:38.635Z,-0.20
2018-02-20T04:11:06.965Z,-0.30
2018-02-20T04:13:35.294Z,-0.50
2018-02-20T04:16:03.668Z,-0.70
2018-02-20T04:18:31.985Z,-0.60
2018-02-20T04:21:00.368Z,-0.50
2018-02-20T04:23:28.741Z,-0.50
2018-02-20T04:25:57.070Z,-0.50
2018-02-20T04:28:25.609Z,-0.40
2018-02-20T04:30:54.450Z,-0.40
2018-02-20T04:33:22.888Z,-0.30
2018-02-20T04:35:51.764Z,-0.10
2018-02-20T04:38:20.144Z,-0.10
2018-02-20T04:40:48.541Z,-0.10
2018-02-20T04:43:16.869Z,-0.20
2018-02-20T04:45:45.220Z,-0.40
2018-02-20T04:48:13.560Z,-0.30
2018-02-20T04:50:42.470Z,-0.10
2018-02-20T04:53:10.836Z,-0.10
2018-02-20T04:55:39.167Z,-0.10
2018-02-20T04:58:07.877Z,-0.30
2018-02-20T05:00:37.005Z,-0.20
2018-02-20T05:03:05.500Z,-0.30
2018-02-20T05:05:34.161Z,-0.30
2018-02-20T05:08:04.490Z,-0.40
2018-02-20T05:10:32.811Z,-0.50
2018-02-20T05:13:01.133Z,-0.50
2018-02-20T05:15:30.048Z,-0.60
2018-02-20T05:17:58.650Z,-0.60
2018-02-20T05:20:26.972Z,-0.50
2018-02-20T05:22:56.432Z,-0.50
2018-02-20T05:25:24.764Z,-0.30
2018-02-20T05:27:53.079Z,-0.30
2018-02-20T05:30:21.668Z,-0.20
2018-02-20T05:32:49.996Z,-0.20
2018-02-20T05:35:18.327Z,-0.30
2018-02-20T05:37:47.469Z,-0.60
2018-02-20T05:40:16.112Z,-0.60
2018-02-20T05:42:45.737Z,-0.60
2018-02-20T05:45:14.188Z,-0.40
2018-02-20T05:47:42.645Z,-0.30
2018-02-20T05:50:11.032Z,-0.20
2018-02-20T05:52:39.408Z,-0.30
2018-02-20T05:55:07.945Z,-0.20
2018-02-20T05:57:36.292Z,-0.20
2018-02-20T06:00:04.905Z,-0.40
2018-02-20T06:02:33.228Z,-0.40
2018-02-20T06:05:01.677Z,-0.30
2018-02-20T06:07:30.050Z,-0.20
2018-02-20T06:09:58.372Z,-0.30
2018-02-20T06:12:27.152Z,-0.40
2018-02-20T06:14:55.920Z,-0.30
2018-02-20T06:17:24.244Z,-0.20
2018-02-20T06:19:53.028Z,-0.50
2018-02-20T06:22:22.628Z,-0.60
2018-02-20T06:24:50.950Z,-0.60
2018-02-20T06:27:19.335Z,-0.50
2018-02-20T06:29:47.668Z,-0.40
2018-02-20T06:32:16.037Z,-0.20
2018-02-20T06:34:45.636Z,-0.30
2018-02-20T06:37:13.967Z,-0.30
2018-02-20T06:39:42.292Z,-0.40
2018-02-20T06:42:11.432Z,-0.50
2018-02-20T06:44:39.757Z,-0.50
2018-02-20T06:47:08.090Z,-0.50
2018-02-20T06:49:36.444Z,-0.40
2018-02-20T06:52:04.777Z,-0.20
2018-02-20T06:54:33.204Z,-0.10
2018-02-20T06:57:01.916Z,-0.20
2018-02-20T06:59:30.244Z,-0.30
2018-02-20T07:01:58.687Z,-0.10
2018-02-20T07:04:27.084Z,-0.10
2018-02-20T07:06:55.408Z,-0.10
2018-02-20T07:09:23.723Z,-0.20
2018-02-20T07:11:52.104Z,-0.20
2018-02-20T07:14:20.420Z,0.00
2018-02-20T07:16:49.004Z,0.30
2018-02-20T07:19:17.879Z,0.40
2018-02-20T07:21:46.213Z,0.50
2018-02-20T07:24:14.535Z,0.50
2018-02-20T07:26:43.571Z,0.40
2018-02-20T07:29:11.904Z,0.30
2018-02-20T07:31:40.316Z,0.60
2018-02-20T07:34:08.672Z,0.80
2018-02-20T07:36:37.096Z,1.00
2018-02-20T07:39:05.414Z,1.00
2018-02-20T07:41:33.936Z,1.00
2018-02-20T07:44:02.836Z,1.00
2018-02-20T07:46:31.154Z,1.10
2018-02-20T07:48:59.535Z,0.90
2018-02-20T07:51:27.848Z,1.10
2018-02-20T07:53:56.931Z,1.30
2018-02-20T07:56:25.356Z,1.30
2018-02-20T07:58:53.669Z,1.30
2018-02-20T08:01:21.990Z,1.40
2018-02-20T08:03:50.340Z,1.60
2018-02-20T08:06:19.253Z,1.50
2018-02-20T08:08:47.567Z,1.40
2018-02-20T08:11:16.605Z,1.50
2018-02-20T08:13:44.984Z,1.60
2018-02-20T08:16:13.292Z,1.70
2018-02-20T08:18:41.704Z,1.90
2018-02-20T08:21:09.998Z,1.90
2018-02-20T08:23:39.079Z,2.00
2018-02-20T08:26:07.700Z,1.30
2018-02-20T08:28:36.011Z,1.10
2018-02-20T08:31:04.316Z,1.30
2018-02-20T08:33:32.693Z,1.60
2018-02-20T08:36:01.013Z,1.60
2018-02-20T08:38:29.316Z,1.60
2018-02-20T08:40:57.673Z,1.70
2018-02-20T08:43:25.983Z,1.80
2018-02-20T08:45:54.288Z,2.20
2018-02-20T08:48:23.208Z,1.90
2018-02-20T08:50:51.720Z,1.90
2018-02-20T08:53:20.263Z,1.80
2018-02-20T08:55:48.629Z,2.10
2018-02-20T08:58:17.136Z,1.60
2018-02-20T09:00:45.522Z,1.50
2018-02-20T09:03:14.176Z,1.80
2018-02-20T09:05:42.564Z,1.40
2018-02-20T09:08:10.875Z,1.50
2018-02-20T09:10:40.433Z,1.90
2018-02-20T09:13:08.742Z,2.10
2018-02-20T09:15:38.225Z,1.90
2018-02-20T09:18:06.777Z,1.80
2018-02-20T09:20:35.093Z,1.70
2018-02-20T09:23:03.466Z,1.60
2018-02-20T09:25:31.836Z,1.80
2018-02-20T09:28:01.372Z,1.80
2018-02-20T09:30:29.728Z,2.00
2018-02-20T09:32:58.040Z,2.20
2018-02-20T09:35:26.500Z,1.90
2018-02-20T09:37:54.856Z,1.90
2018-02-20T09:40:23.460Z,2.10
2018-02-20T09:42:51.772Z,2.00
2018-02-20T09:45:20.756Z,2.00
2018-02-20T09:47:49.120Z,2.20
2018-02-20T09:50:18.193Z,2.60
2018-02-20T09:52:46.512Z,2.20
2018-02-20T09:55:14.907Z,2.10
2018-02-20T09:57:43.328Z,1.80
2018-02-20T10:00:11.697Z,2.00
2018-02-20T10:02:40.105Z,2.30
2018-02-20T10:05:08.378Z,2.10
2018-02-20T10:07:36.704Z,2.10
2018-02-20T10:10:05.342Z,2.50
2018-02-20T10:12:33.724Z,2.80
2018-02-20T10:15:02.049Z,2.70
2018-02-20T10:17:30.416Z,2.70
2018-02-20T10:19:59.270Z,2.30
2018-02-20T10:22:27.598Z,1.60
2018-02-20T10:24:56.321Z,1.80
2018-02-20T10:27:24.628Z,1.90
2018-02-20T10:29:54.153Z,2.30
2018-02-20T10:32:22.843Z,2.30
2018-02-20T10:34:51.431Z,2.30
2018-02-20T10:37:19.736Z,2.30
2018-02-20T10:39:48.264Z,2.30
2018-02-20T10:42:17.340Z,2.00
2018-02-20T10:44:45.657Z,2.00
2018-02-20T10:47:14.656Z,2.00
2018-02-20T10:49:42.960Z,2.00
2018-02-20T10:52:11.316Z,2.10
2018-02-20T10:54:40.276Z,2.10
2018-02-20T10:57:08.592Z,1.50
2018-02-20T10:59:37.480Z,1.80
2018-02-20T11:02:05.792Z,2.00
2018-02-20T11:04:34.100Z,1.90
2018-02-20T11:07:03.080Z,2.20
2018-02-20T11:09:31.388Z,2.30
2018-02-20T11:11:59.701Z,1.90
2018-02-20T11:14:28.031Z,1.60
2018-02-20T11:16:56.344Z,1.80
2018-02-20T11:19:25.444Z,2.40
2018-02-20T11:21:53.898Z,2.50
2018-02-20T11:24:22.472Z,2.80
2018-02-20T11:26:50.804Z,2.90
2018-02-20T11:29:19.205Z,2.80
2018-02-20T11:31:48.076Z,3.00
2018-02-20T11:34:16.392Z,3.10
2018-02-20T11:36:44.988Z,2.70
2018-02-20T11:39:13.300Z,2.30
2018-02-20T11:41:41.644Z,2.00
2018-02-20T11:44:10.016Z,2.20
2018-02-20T11:46:39.091Z,1.90
2018-02-20T11:49:07.432Z,1.90
2018-02-20T11:51:35.743Z,2.20
2018-02-20T11:54:04.051Z,1.90
2018-02-20T11:56:32.376Z,1.80
2018-02-20T11:59:01.149Z,1.90
2018-02-20T12:01:29.460Z,1.70
2018-02-20T12:03:57.781Z,1.70
2018-02-20T12:06:26.123Z,1.70
2018-02-20T12:08:54.429Z,1.70
2018-02-20T12:11:22.748Z,2.30
2018-02-20T12:13:51.523Z,2.40
2018-02-20T12:16:19.836Z,2.90
2018-02-20T12:18:48.147Z,3.40
2018-02-20T12:21:17.024Z,3.10
2018-02-20T12:23:45.611Z,2.30
2018-02-20T12:26:13.923Z,2.30
2018-02-20T12:28:42.287Z,2.00
2018-02-20T12:31:10.601Z,1.80
2018-02-20T12:33:38.916Z,1.70
2018-02-20T12:36:07.284Z,1.90
2018-02-20T12:38:36.364Z,1.90
2018-02-20T12:41:05.332Z,1.90
2018-02-20T12:43:33.756Z,1.70
2018-02-20T12:46:02.069Z,1.60
2018-02-20T12:48:30.380Z,1.60
2018-02-20T12:50:58.884Z,1.40
2018-02-20T12:53:27.220Z,1.50
2018-02-20T12:55:55.515Z,1.50
2018-02-20T12:58:23.952Z,1.50
2018-02-20T13:00:52.585Z,1.70
2018-02-20T13:03:20.904Z,1.40
2018-02-20T13:05:49.395Z,1.30
2018-02-20T13:08:17.720Z,1.20
2018-02-20T13:10:46.492Z,1.30
2018-02-20T13:13:14.833Z,1.40
2018-02-20T13:15:44.108Z,1.30
2018-02-20T13:18:12.614Z,1.40
2018-02-20T13:20:41.388Z,1.40
2018-02-20T13:23:10.616Z,1.50
2018-02-20T13:25:39.048Z,1.80
2018-02-20T13:28:07.360Z,1.50
2018-02-20T13:30:35.714Z,1.50
2018-02-20T13:33:05.139Z,1.30
2018-02-20T13:35:33.447Z,1.30
2018-02-20T13:38:01.812Z,1.30
2018-02-20T13:40:30.900Z,1.00
2018-02-20T13:42:59.220Z,0.80
2018-02-20T13:45:28.267Z,0.90
2018-02-20T13:47:56.588Z,1.20
2018-02-20T13:50:24.896Z,0.90
2018-02-20T13:52:53.245Z,0.80
2018-02-20T13:55:21.556Z,0.80
2018-02-20T13:57:50.628Z,1.00
2018-02-20T14:00:19.508Z,1.00
2018-02-20T14:02:48.002Z,0.80
2018-02-20T14:05:17.016Z,0.70
2018-02-20T14:07:45.487Z,0.70
2018-02-20T14:10:13.951Z,0.80
2018-02-20T14:12:42.324Z,0.80
2018-02-20T14:15:10.696Z,0.90
2018-02-20T14:17:39.054Z,0.90
2018-02-20T14:20:07.364Z,0.80
2018-02-20T14:22:35.675Z,0.90
2018-02-20T14:25:04.774Z,0.90
2018-02-20T14:27:33.083Z,0.90
2018-02-20T14:30:01.420Z,1.00
2018-02-20T14:32:30.398Z,0.80
2018-02-20T14:34:59.260Z,0.80
2018-02-20T14:37:27.568Z,0.90
2018-02-20T14:39:56.892Z,1.00
2018-02-20T14:42:25.472Z,1.00
2018-02-20T14:44:53.809Z,0.80
2018-02-20T14:47:22.339Z,0.70
2018-02-20T14:49:50.995Z,0.80
2018-02-20T14:52:19.662Z,1.00
2018-02-20T14:54:49.007Z,0.90
2018-02-20T14:57:18.091Z,0.90
2018-02-20T14:59:46.410Z,0.90
2018-02-20T15:02:15.208Z,0.70
2018-02-20T15:04:43.903Z,0.70
2018-02-20T15:07:13.018Z,0.70
2018-02-20T15:09:41.348Z,0.60
2018-02-20T15:12:09.663Z,0.50
2018-02-20T15:14:38.086Z,0.50
2018-02-20T15:17:06.376Z,0.50
2018-02-20T15:19:36.758Z,0.60
2018-02-20T15:22:05.617Z,0.70
2018-02-20T15:24:34.450Z,0.60
2018-02-20T15:27:04.314Z,0.70
2018-02-20T15:29:32.628Z,0.70
2018-02-20T15:32:00.944Z,0.80
2018-02-20T15:34:29.312Z,0.90
2018-02-20T15:36:57.628Z,0.80
2018-02-20T15:39:26.157Z,0.60
2018-02-20T15:41:55.268Z,0.70
2018-02-20T15:44:24.345Z,0.70
2018-02-20T15:46:53.160Z,0.70
2018-02-20T15:49:22.020Z,0.60
2018-02-20T15:51:50.331Z,0.60
2018-02-20T15:54:18.644Z,0.50
2018-02-20T15:56:47.000Z,0.50
2018-02-20T15:59:15.321Z,0.50
2018-02-20T16:01:43.632Z,0.60
2018-02-20T16:04:12.012Z,0.60
2018-02-20T16:06:41.352Z,0.50
2018-02-20T16:09:09.668Z,0.50
2018-02-20T16:11:38.032Z,0.60
2018-02-20T16:14:09.772Z,0.50
2018-02-20T16:16:38.139Z,0.50
2018-02-20T16:19:06.444Z,0.50
2018-02-20T16:21:34.765Z,0.60
2018-02-20T16:24:03.634Z,0.60
2018-02-20T16:26:31.952Z,0.60
2018-02-20T16:29:00.393Z,0.60
2018-02-20T16:31:28.781Z,0.50
2018-02-20T16:34:01.852Z,0.40
2018-02-20T16:36:30.223Z,0.40
2018-02-20T16:38:58.879Z,0.40
2018-02-20T16:41:27.311Z,0.50
2018-02-20T16:43:55.691Z,0.50
2018-02-20T16:46:24.008Z,0.40
2018-02-20T16:48:52.328Z,0.50
2018-02-20T16:51:20.796Z,0.40
2018-02-20T16:53:49.102Z,0.60
2018-02-20T16:56:17.414Z,0.60
2018-02-20T16:58:45.757Z,0.60
2018-02-20T17:01:14.836Z,0.50
2018-02-20T17:03:43.164Z,0.50
2018-02-20T17:06:11.700Z,0.30
2018-02-20T17:08:40.093Z,0.20
2018-02-20T17:11:09.125Z,0.30
2018-02-20T17:13:37.500Z,0.30
2018-02-20T17:16:05.808Z,0.30
2018-02-20T17:18:34.723Z,0.30
2018-02-20T17:21:03.084Z,0.10
2018-02-20T17:23:31.396Z,0.00
2018-02-20T17:25:59.720Z,-0.10
2018-02-20T17:28:28.092Z,-0.10
2018-02-20T17:30:56.697Z,-0.10
2018-02-20T17:33:25.716Z,0.00
2018-02-20T17:35:54.864Z,-0.10
2018-02-20T17:38:23.188Z,-0.10
2018-02-20T17:40:51.532Z,-0.20
2018-02-20T17:43:20.199Z,-0.20
2018-02-20T17:45:50.013Z,-0.20
2018-02-20T17:48:19.001Z,-0.10
2018-02-20T17:50:47.320Z,0.00
2018-02-20T17:53:16.360Z,-0.10
2018-02-20T17:55:44.739Z,0.10
2018-02-20T17:58:13.692Z,0.10
2018-02-20T18:00:42.016Z,0.00
2018-02-20T18:03:10.408Z,0.00
2018-02-20T18:05:38.728Z,0.10
2018-02-20T18:08:07.348Z,0.10
2018-02-20T18:10:35.725Z,0.00
2018-02-20T18:13:04.049Z,0.00
2018-02-20T18:15:32.368Z,0.20
2018-02-20T18:18:00.872Z,0.20
2018-02-20T18:20:29.235Z,0.00
2018-02-20T18:22:58.767Z,0.10
2018-02-20T18:25:28.028Z,0.00
2018-02-20T18:27:57.117Z,-0.20
2018-02-20T18:30:25.452Z,-0.30
2018-02-20T18:32:53.836Z,-0.10
2018-02-20T18:35:22.157Z,-0.30
2018-02-20T18:37:50.488Z,-0.20
2018-02-20T18:40:19.360Z,-0.20
2018-02-20T18:42:47.711Z,-0.20
2018-02-20T18:45:16.044Z,-0.10
2018-02-20T18:47:44.403Z,0.00
2018-02-20T18:50:13.013Z,-0.10
2018-02-20T18:52:41.749Z,0.10
2018-02-20T18:55:10.120Z,-0.20
2018-02-20T18:57:39.209Z,-0.50
2018-02-20T19:00:09.628Z,-0.60
2018-02-20T19:02:38.183Z,-0.60
2018-02-20T19:05:06.513Z,-0.60
2018-02-20T19:07:35.499Z,-0.60
2018-02-20T19:10:04.363Z,-0.60
2018-02-20T19:12:33.372Z,-0.60
2018-02-20T19:15:02.392Z,-0.70
2018-02-20T19:17:30.777Z,-0.60
2018-02-20T19:19:59.340Z,-0.60
2018-02-20T19:22:27.676Z,-0.70
2018-02-20T19:24:56.052Z,-0.60
2018-02-20T19:27:24.383Z,-0.70
2018-02-20T19:29:52.710Z,-0.70
2018-02-20T19:32:21.089Z,-0.70
2018-02-20T19:34:49.413Z,-0.70
2018-02-20T19:37:17.800Z,-0.70
2018-02-20T19:39:46.651Z,-0.80
2018-02-20T19:42:15.449Z,-0.60
2018-02-20T19:44:43.780Z,-0.40
2018-02-20T19:47:12.088Z,-0.40
2018-02-20T19:49:40.465Z,-0.70
2018-02-20T19:52:08.784Z,-0.90
2018-02-20T19:54:37.116Z,-0.60
2018-02-20T19:57:05.720Z,-0.60
2018-02-20T19:59:34.056Z,-0.50
2018-02-20T20:02:02.380Z,-0.40
2018-02-20T20:04:31.544Z,-0.50
2018-02-20T20:07:00.372Z,-0.50
2018-02-20T20:09:29.560Z,-0.70
2018-02-20T20:11:58.537Z,-0.70
2018-02-20T20:14:27.651Z,-0.50
2018-02-20T20:16:56.803Z,-0.40
2018-02-20T20:19:25.157Z,-0.40
2018-02-20T20:21:53.540Z,-0.30
2018-02-20T20:24:21.868Z,-0.40
2018-02-20T20:26:55.865Z,-0.40
2018-02-20T20:29:24.184Z,-0.40
2018-02-20T20:31:52.505Z,-0.50
2018-02-20T20:34:21.680Z,-0.50
2018-02-20T20:36:50.008Z,-0.50
2018-02-20T20:39:18.801Z,-0.60
2018-02-20T20:41:47.952Z,-0.40
2018-02-20T20:44:16.272Z,-0.40
2018-02-20T20:46:44.594Z,-0.30
2018-02-20T20:49:13.445Z,-0.30
2018-02-20T20:51:41.876Z,-0.40
2018-02-20T20:54:10.201Z,-0.30
2018-02-20T20:56:39.965Z,-0.50
2018-02-20T20:59:08.297Z,-0.40
2018-02-20T21:01:36.631Z,-0.50
2018-02-20T21:04:05.008Z,-0.40
2018-02-20T21:06:33.336Z,-0.50
2018-02-20T21:09:02.747Z,-0.80
2018-02-20T21:11:31.092Z,-0.80
2018-02-20T21:13:59.619Z,-1.00
2018-02-20T21:16:27.944Z,-0.90
2018-02-20T21:18:56.607Z,-0.70
2018-02-20T21:21:24.977Z,-0.50
2018-02-20T21:23:53.961Z,-0.60
2018-02-20T21:26:23.317Z,-0.60
2018-02-20T21:28:52.283Z,-0.90
2018-02-20T21:31:21.650Z,-0.80
2018-02-20T21:33:50.025Z,-0.70
2018-02-20T21:36:18.539Z,-0.80
2018-02-20T21:38:47.077Z,-0.80
2018-02-20T21:41:15.844Z,-0.80
2018-02-20T21:43:45.320Z,-0.70
2018-02-20T21:46:13.564Z,-0.80
2018-02-20T21:48:41.908Z,-0.70
2018-02-20T21:51:10.284Z,-0.70
2018-02-20T21:53:39.235Z,-0.60
2018-02-20T21:56:07.572Z,-0.50
2018-02-20T21:58:35.959Z,-0.80
2018-02-20T22:01:04.500Z,-1.00
2018-02-20T22:03:33.100Z,-1.00
2018-02-20T22:06:02.200Z,-1.10
2018-02-20T22:08:30.760Z,-1.10
2018-02-20T22:10:59.522Z,-1.10
2018-02-20T22:13:27.870Z,-1.10
2018-02-20T22:15:56.499Z,-1.10
2018-02-20T22:18:25.327Z,-1.10
2018-02-20T22:20:53.651Z,-1.30
2018-02-20T22:23:22.015Z,-1.40
2018-02-20T22:25:50.332Z,-1.40
2018-02-20T22:28:19.780Z,-1.20
2018-02-20T22:30:48.132Z,-1.30
2018-02-20T22:33:16.447Z,-1.30
2018-02-20T22:35:44.771Z,-1.30
2018-02-20T22:38:13.161Z,-1.40
2018-02-20T22:40:41.488Z,-1.30
2018-02-20T22:43:09.821Z,-1.30
2018-02-20T22:45:38.655Z,-1.20
2018-02-20T22:48:06.986Z,-1.40
2018-02-20T22:50:35.321Z,-1.40
2018-02-20T22:53:03.680Z,-1.40
2018-02-20T22:55:32.004Z,-1.20
2018-02-20T22:58:00.323Z,-1.10
2018-02-20T23:00:29.328Z,-1.00
2018-02-20T23:02:57.648Z,-1.10
2018-02-20T23:05:25.976Z,-1.10
2018-02-20T23:07:55.129Z,-1.20
2018-02-20T23:10:23.457Z,-1.20
2018-02-20T23:12:51.780Z,-1.20
2018-02-20T23:15:20.149Z,-1.30
2018-02-20T23:17:48.473Z,-1.20
2018-02-20T23:20:18.901Z,-1.20
2018-02-20T23:22:48.040Z,-1.20
2018-02-20T23:25:16.376Z,-1.20
2018-02-20T23:27:44.704Z,-1.20
2018-02-20T23:30:15.328Z,-1.20
2018-02-20T23:32:43.649Z,-1.20
2018-02-20T23:35:11.968Z,-1.20
2018-02-20T23:37:40.981Z,-1.40
2018-02-20T23:40:10.740Z,-1.40
2018-02-20T23:42:39.444Z,-1.50
2018-02-20T23:45:07.804Z,-1.60
2018-02-20T23:47:36.611Z,-1.60
2018-02-20T23:50:04.932Z,-1.60
2018-02-20T23:52:33.477Z,-1.60
2018-02-20T23:55:01.797Z,-1.50
2018-02-20T23:57:30.120Z,-1.60
2018-02-20T23:59:58.508Z,-1.60
